Poseyville, Indiana
Current Conditions -  °F | °C
As of 4:54 PM on Tuesday 27 Jan 2015 (Local Time) from KEVV Reporting Station
Overcast Overcast  
Wind Chill: 29°   Ceiling: 1500
Heat Index: 35°   Visibility: 10mi
Dew Point: 28°   Wind: 7mph
Humidity: 76%   Direction: 10°N
Pressure: 30.21"   Gusts: NA
Location:  38.17°N, 87.78°W
Report Text: KEVV 272254Z 01006KT 10SM OVC015 02/M02 A3021 RMK AO2 SLP233 T00171022
Loading
Personal Weather Stations






























Interactive Weather Map New forecast layout! Learn more

10-Day Weather Forecast

Advertisements
Track Severe Weather on mobile